createdAt,value
2018-10-18T00:00:36.933Z,78.81
2018-10-18T00:03:05.863Z,78.78
2018-10-18T00:05:35.192Z,79.19
2018-10-18T00:08:04.129Z,79.20
2018-10-18T00:10:32.906Z,79.31
2018-10-18T00:13:01.733Z,79.53
2018-10-18T00:15:30.579Z,79.77
2018-10-18T00:17:59.561Z,79.91
2018-10-18T00:20:28.391Z,79.53
2018-10-18T00:22:57.420Z,79.93
2018-10-18T00:25:26.344Z,80.04
2018-10-18T00:27:55.314Z,79.78
2018-10-18T00:30:24.194Z,79.59
2018-10-18T00:32:53.160Z,79.53
2018-10-18T00:35:22.144Z,79.48
2018-10-18T00:37:50.976Z,79.19
2018-10-18T00:40:19.879Z,79.42
2018-10-18T00:42:49.018Z,79.29
2018-10-18T00:45:18.037Z,79.42
2018-10-18T00:47:47.056Z,79.35
2018-10-18T00:50:16.139Z,79.44
2018-10-18T00:52:44.999Z,79.51
2018-10-18T00:55:14.740Z,79.60
2018-10-18T00:57:43.794Z,79.51
2018-10-18T01:00:14.092Z,79.26
2018-10-18T01:02:44.388Z,79.40
2018-10-18T01:05:13.312Z,79.37
2018-10-18T01:07:42.211Z,79.15
2018-10-18T01:10:11.990Z,78.94
2018-10-18T01:12:40.971Z,79.30
2018-10-18T01:15:10.729Z,79.20
2018-10-18T01:17:40.036Z,79.20
2018-10-18T01:20:09.035Z,78.98
2018-10-18T01:22:37.951Z,78.94
2018-10-18T01:25:07.219Z,79.23
2018-10-18T01:27:36.228Z,79.37
2018-10-18T01:30:06.484Z,79.36
2018-10-18T01:32:35.419Z,79.61
2018-10-18T01:35:04.390Z,79.78
2018-10-18T01:37:33.425Z,79.33
2018-10-18T01:40:03.746Z,79.05
2018-10-18T01:42:32.528Z,79.25
2018-10-18T01:45:01.384Z,79.34
2018-10-18T01:47:30.116Z,79.42
2018-10-18T01:49:59.023Z,79.95
2018-10-18T01:52:27.850Z,79.86
2018-10-18T01:54:56.684Z,79.21
2018-10-18T01:57:25.556Z,79.69
2018-10-18T01:59:55.222Z,79.68
2018-10-18T02:02:24.354Z,79.39
2018-10-18T02:04:53.346Z,79.57
2018-10-18T02:07:22.259Z,79.49
2018-10-18T02:09:51.127Z,79.68
2018-10-18T02:12:20.376Z,79.44
2018-10-18T02:14:51.228Z,79.92
2018-10-18T02:17:20.049Z,79.68
2018-10-18T02:19:48.935Z,79.69
2018-10-18T02:22:17.764Z,79.55
2018-10-18T02:24:46.668Z,79.50
2018-10-18T02:27:15.586Z,79.63
2018-10-18T02:29:44.449Z,79.80
2018-10-18T02:32:13.328Z,79.63
2018-10-18T02:34:42.134Z,79.54
2018-10-18T02:37:11.038Z,79.94
2018-10-18T02:39:40.198Z,80.04
2018-10-18T02:42:09.186Z,79.91
2018-10-18T02:44:38.052Z,79.74
2018-10-18T02:47:06.864Z,79.87
2018-10-18T02:49:35.693Z,79.40
2018-10-18T02:52:04.570Z,79.79
2018-10-18T02:54:33.578Z,79.73
2018-10-18T02:57:02.416Z,79.67
2018-10-18T02:59:31.234Z,79.22
2018-10-18T03:02:00.103Z,79.48
2018-10-18T03:04:28.955Z,79.03
2018-10-18T03:06:57.845Z,79.38
2018-10-18T03:09:26.714Z,79.27
2018-10-18T03:11:57.729Z,78.95
2018-10-18T03:14:26.693Z,78.77
2018-10-18T03:16:55.455Z,78.92
2018-10-18T03:19:24.266Z,79.21
2018-10-18T03:21:53.082Z,78.96
2018-10-18T03:24:22.243Z,79.07
2018-10-18T03:26:51.063Z,78.92
2018-10-18T03:29:19.875Z,78.54
2018-10-18T03:31:48.646Z,78.27
2018-10-18T03:34:17.541Z,78.14
2018-10-18T03:36:46.408Z,78.28
2018-10-18T03:39:15.228Z,78.43
2018-10-18T03:41:44.065Z,78.74
2018-10-18T03:44:13.170Z,78.71
2018-10-18T03:46:42.030Z,78.86
2018-10-18T03:49:10.852Z,79.37
2018-10-18T03:51:39.726Z,79.00
2018-10-18T03:54:08.617Z,79.26
2018-10-18T03:56:37.716Z,79.10
2018-10-18T03:59:07.284Z,79.15
2018-10-18T04:01:36.203Z,79.50
2018-10-18T04:04:05.723Z,79.13
2018-10-18T04:06:34.590Z,79.36
2018-10-18T04:09:03.878Z,79.64
2018-10-18T04:11:32.807Z,79.30
2018-10-18T04:14:01.732Z,79.28
2018-10-18T04:16:30.567Z,79.02
2018-10-18T04:18:59.375Z,79.01
2018-10-18T04:21:28.310Z,78.98
2018-10-18T04:23:57.176Z,79.33
2018-10-18T04:26:26.012Z,79.19
2018-10-18T04:28:54.907Z,79.03
2018-10-18T04:31:23.792Z,79.04
2018-10-18T04:33:52.643Z,79.06
2018-10-18T04:36:21.576Z,79.17
2018-10-18T04:38:50.452Z,79.26
2018-10-18T04:41:19.269Z,79.04
2018-10-18T04:43:52.944Z,79.32
2018-10-18T04:46:21.871Z,79.50
2018-10-18T04:48:50.792Z,79.68
2018-10-18T04:51:19.640Z,79.72
2018-10-18T04:53:48.468Z,79.48
2018-10-18T04:56:17.310Z,79.52
2018-10-18T04:58:48.200Z,79.25
2018-10-18T05:01:17.118Z,79.29
2018-10-18T05:03:45.899Z,79.39
2018-10-18T05:06:14.766Z,79.51
2018-10-18T05:08:43.617Z,79.28
2018-10-18T05:11:12.536Z,78.85
2018-10-18T05:13:41.492Z,79.19
2018-10-18T05:16:10.292Z,78.77
2018-10-18T05:18:39.171Z,78.99
2018-10-18T05:21:08.053Z,78.88
2018-10-18T05:23:36.935Z,79.27
2018-10-18T05:26:06.359Z,78.74
2018-10-18T05:28:35.217Z,78.82
2018-10-18T05:31:04.146Z,78.72
2018-10-18T05:33:33.002Z,79.08
2018-10-18T05:36:01.920Z,78.81
2018-10-18T05:38:30.697Z,78.79
2018-10-18T05:40:59.577Z,79.19
2018-10-18T05:43:28.464Z,79.00
2018-10-18T05:45:58.091Z,79.36
2018-10-18T05:48:27.681Z,79.12
2018-10-18T05:50:56.565Z,79.27
2018-10-18T05:53:25.502Z,79.19
2018-10-18T05:55:55.980Z,78.99
2018-10-18T05:58:24.831Z,78.84
2018-10-18T06:00:53.744Z,78.37
2018-10-18T06:03:22.608Z,78.15
2018-10-18T06:05:51.497Z,78.26
2018-10-18T06:08:20.375Z,78.47
2018-10-18T06:11:00.253Z,77.62
2018-10-18T06:13:29.283Z,76.99
2018-10-18T06:15:58.118Z,77.04
2018-10-18T06:18:27.707Z,77.17
2018-10-18T06:20:56.516Z,77.38
2018-10-18T06:23:25.489Z,76.80
2018-10-18T06:25:54.353Z,76.26
2018-10-18T06:28:23.233Z,75.15
2018-10-18T06:30:52.989Z,73.22
2018-10-18T06:33:21.772Z,71.82
2018-10-18T06:35:50.659Z,71.56
2018-10-18T06:38:19.601Z,72.49
2018-10-18T06:40:48.518Z,72.34
2018-10-18T06:43:17.518Z,71.68
2018-10-18T06:46:01.338Z,70.58
2018-10-18T06:48:30.166Z,68.86
2018-10-18T06:50:58.963Z,68.23
2018-10-18T06:53:27.898Z,65.42
2018-10-18T06:55:56.813Z,63.37
2018-10-18T06:58:25.655Z,62.57
2018-10-18T07:00:54.550Z,62.11
2018-10-18T07:03:23.367Z,60.47
2018-10-18T07:05:52.160Z,61.00
2018-10-18T07:08:21.083Z,58.46
2018-10-18T07:10:49.993Z,59.14
2018-10-18T07:13:18.735Z,61.95
2018-10-18T07:15:48.498Z,64.06
2018-10-18T07:18:17.683Z,65.66
2018-10-18T07:20:46.549Z,67.25
2018-10-18T07:23:15.347Z,67.72
2018-10-18T07:25:44.138Z,69.17
2018-10-18T07:28:13.043Z,70.99
2018-10-18T07:30:41.809Z,71.81
2018-10-18T07:33:10.686Z,71.07
2018-10-18T07:35:39.590Z,71.66
2018-10-18T07:38:08.407Z,72.03
2018-10-18T07:40:37.240Z,72.73
2018-10-18T07:43:06.081Z,72.67
2018-10-18T07:45:34.869Z,72.88
2018-10-18T07:48:03.765Z,72.09
2018-10-18T07:50:32.524Z,72.85
2018-10-18T07:53:01.507Z,73.27
2018-10-18T07:55:30.377Z,73.49
2018-10-18T07:57:59.163Z,73.26
2018-10-18T08:00:28.131Z,73.96
2018-10-18T08:03:04.638Z,73.94
2018-10-18T08:05:34.517Z,73.95
2018-10-18T08:08:03.564Z,73.40
2018-10-18T08:10:32.713Z,74.59
2018-10-18T08:13:02.498Z,75.11
2018-10-18T08:15:32.341Z,75.23
2018-10-18T08:18:01.288Z,74.65
2018-10-18T08:20:31.081Z,75.41
2018-10-18T08:23:01.038Z,75.26
2018-10-18T08:25:30.086Z,76.12
2018-10-18T08:27:59.127Z,77.30
2018-10-18T08:30:28.287Z,76.24
2018-10-18T08:32:57.446Z,76.49
2018-10-18T08:35:26.457Z,76.60
2018-10-18T08:37:55.556Z,76.88
2018-10-18T08:40:25.011Z,76.86
2018-10-18T08:42:54.064Z,76.80
2018-10-18T08:45:23.149Z,77.25
2018-10-18T08:47:52.215Z,77.40
2018-10-18T08:50:21.116Z,76.62
2018-10-18T08:52:50.001Z,76.05
2018-10-18T08:55:19.571Z,75.50
2018-10-18T08:57:48.550Z,74.94
2018-10-18T09:00:17.304Z,75.49
2018-10-18T09:02:47.150Z,75.85
2018-10-18T09:05:15.933Z,75.40
2018-10-18T09:07:44.816Z,75.57
2018-10-18T09:10:13.666Z,75.35
2018-10-18T09:12:44.184Z,76.78
2018-10-18T09:15:13.350Z,76.04
2018-10-18T09:17:42.140Z,75.56
2018-10-18T09:20:12.219Z,74.80
2018-10-18T09:22:41.040Z,74.11
2018-10-18T09:25:11.998Z,73.63
2018-10-18T09:27:41.338Z,73.65
2018-10-18T09:30:12.133Z,73.88
2018-10-18T09:32:40.904Z,74.24
2018-10-18T09:35:09.736Z,72.44
2018-10-18T09:37:38.634Z,72.23
2018-10-18T09:40:09.454Z,71.51
2018-10-18T09:42:38.323Z,71.12
2018-10-18T09:45:09.674Z,70.13
2018-10-18T09:47:38.600Z,71.41
2018-10-18T09:50:07.675Z,70.82
2018-10-18T09:52:36.430Z,69.93
2018-10-18T09:55:06.255Z,70.34
2018-10-18T09:57:35.132Z,69.90
2018-10-18T10:00:05.353Z,70.92
2018-10-18T10:02:41.283Z,71.19
2018-10-18T10:05:10.792Z,71.97
2018-10-18T10:07:39.838Z,71.66
2018-10-18T10:10:09.406Z,71.03
2018-10-18T10:12:39.522Z,70.40
2018-10-18T10:15:09.226Z,69.42
2018-10-18T10:17:38.908Z,69.59
2018-10-18T10:20:09.552Z,69.24
2018-10-18T10:22:39.078Z,68.97
2018-10-18T10:25:08.670Z,67.93
2018-10-18T10:27:38.252Z,67.29
2018-10-18T10:30:09.946Z,67.53
2018-10-18T10:32:39.134Z,67.76
2018-10-18T10:35:09.979Z,68.13
2018-10-18T10:37:41.364Z,68.23
2018-10-18T10:40:11.385Z,68.46
2018-10-18T10:42:41.803Z,67.71
2018-10-18T10:45:12.513Z,69.05
2018-10-18T10:47:42.317Z,68.92
2018-10-18T10:50:11.429Z,67.56
2018-10-18T10:52:41.147Z,67.71
2018-10-18T10:55:11.612Z,69.26
2018-10-18T10:57:42.878Z,70.80
2018-10-18T11:00:12.720Z,70.17
2018-10-18T11:02:44.251Z,69.59
2018-10-18T11:05:15.216Z,70.52
2018-10-18T11:07:46.511Z,70.39
2018-10-18T11:10:15.864Z,70.66
2018-10-18T11:12:45.180Z,70.26
2018-10-18T11:15:15.150Z,70.92
2018-10-18T11:17:46.529Z,71.70
2018-10-18T11:20:15.808Z,71.98
2018-10-18T11:22:44.983Z,72.87
2018-10-18T11:25:15.126Z,73.40
2018-10-18T11:27:46.069Z,73.68
2018-10-18T11:30:15.019Z,74.35
2018-10-18T11:32:45.008Z,74.34
2018-10-18T11:35:18.078Z,74.91
2018-10-18T11:37:47.259Z,74.87
2018-10-18T11:40:16.684Z,74.51
2018-10-18T11:42:45.654Z,75.16
2018-10-18T11:45:14.760Z,75.62
2018-10-18T11:47:44.862Z,75.30
2018-10-18T11:50:16.560Z,74.92
2018-10-18T11:52:47.217Z,75.83
2018-10-18T11:55:18.040Z,75.85
2018-10-18T11:57:46.934Z,76.23
2018-10-18T12:00:19.989Z,75.99
2018-10-18T12:02:52.332Z,75.81
2018-10-18T12:05:21.462Z,75.55
2018-10-18T12:07:50.615Z,75.45
2018-10-18T12:10:19.792Z,75.30
2018-10-18T12:12:48.971Z,74.13
2018-10-18T12:15:17.860Z,73.12
2018-10-18T12:17:46.910Z,73.16
2018-10-18T12:20:17.571Z,72.38
2018-10-18T12:22:46.436Z,73.34
2018-10-18T12:25:16.255Z,73.33
2018-10-18T12:27:45.771Z,73.07
2018-10-18T12:30:16.081Z,73.42
2018-10-18T12:32:45.205Z,72.69
2018-10-18T12:35:15.725Z,72.67
2018-10-18T12:37:46.780Z,72.17
2018-10-18T12:40:16.481Z,71.45
2018-10-18T12:42:46.723Z,71.60
2018-10-18T12:45:15.548Z,71.16
2018-10-18T12:47:45.620Z,71.00
2018-10-18T12:50:14.664Z,70.16
2018-10-18T12:52:43.543Z,70.47
2018-10-18T12:55:12.650Z,69.96
2018-10-18T12:57:42.323Z,70.43
2018-10-18T13:00:11.643Z,70.82
2018-10-18T13:02:40.935Z,70.37
2018-10-18T13:05:11.204Z,71.12
2018-10-18T13:07:39.989Z,70.84
2018-10-18T13:10:16.519Z,70.32
2018-10-18T13:12:45.596Z,70.13
2018-10-18T13:15:14.410Z,70.44
2018-10-18T13:17:43.250Z,70.04
2018-10-18T13:20:12.309Z,70.21
2018-10-18T13:22:41.317Z,69.53
2018-10-18T13:25:11.627Z,69.83
2018-10-18T13:27:40.433Z,70.62
2018-10-18T13:30:10.678Z,70.52
2018-10-18T13:32:40.119Z,70.16
2018-10-18T13:35:09.496Z,68.93
2018-10-18T13:37:38.316Z,68.94
2018-10-18T13:40:08.383Z,67.57
2018-10-18T13:42:37.417Z,68.95
2018-10-18T13:45:07.121Z,69.75
2018-10-18T13:47:36.467Z,69.41
2018-10-18T13:50:05.808Z,69.11
2018-10-18T13:52:34.645Z,69.34
2018-10-18T13:55:03.751Z,69.42
2018-10-18T13:57:32.658Z,69.97
2018-10-18T14:00:23.583Z,69.96
2018-10-18T14:02:53.466Z,70.44
2018-10-18T14:05:22.858Z,70.32
2018-10-18T14:07:52.813Z,69.66
2018-10-18T14:10:21.947Z,69.17
2018-10-18T14:12:51.311Z,69.37
2018-10-18T14:15:20.242Z,70.12
2018-10-18T14:17:49.057Z,70.60
2018-10-18T14:20:18.355Z,70.48
2018-10-18T14:22:47.153Z,70.41
2018-10-18T14:25:16.013Z,69.93
2018-10-18T14:27:44.992Z,69.80
2018-10-18T14:30:14.848Z,70.03
2018-10-18T14:32:43.690Z,69.65
2018-10-18T14:35:13.965Z,69.44
2018-10-18T14:37:43.030Z,69.93
2018-10-18T14:40:12.883Z,70.36
2018-10-18T14:42:42.087Z,70.28
2018-10-18T14:45:11.085Z,70.33
2018-10-18T14:47:40.166Z,70.33
2018-10-18T14:50:12.311Z,70.29
2018-10-18T14:52:41.148Z,70.48
2018-10-18T14:55:10.084Z,69.91
2018-10-18T14:57:39.396Z,70.32
2018-10-18T15:00:11.325Z,69.67
2018-10-18T15:02:40.640Z,69.50
2018-10-18T15:05:11.497Z,69.63
2018-10-18T15:07:40.982Z,69.50
2018-10-18T15:10:11.691Z,69.02
2018-10-18T15:12:40.832Z,69.58
2018-10-18T15:15:11.491Z,69.62
2018-10-18T15:17:40.850Z,70.11
2018-10-18T15:20:10.977Z,69.82
2018-10-18T15:22:40.582Z,69.82
2018-10-18T15:25:10.589Z,69.54
2018-10-18T15:27:40.720Z,70.40
2018-10-18T15:30:11.200Z,70.43
2018-10-18T15:32:40.816Z,70.48
2018-10-18T15:35:10.785Z,70.26
2018-10-18T15:37:40.366Z,70.41
2018-10-18T15:40:09.561Z,70.85
2018-10-18T15:42:38.428Z,70.79
2018-10-18T15:45:08.126Z,71.52
2018-10-18T15:47:37.160Z,71.76
2018-10-18T15:50:07.716Z,71.61
2018-10-18T15:52:36.729Z,72.04
2018-10-18T15:55:06.131Z,72.01
2018-10-18T15:57:34.976Z,71.97
2018-10-18T16:00:03.882Z,72.07
2018-10-18T16:02:33.154Z,71.61
2018-10-18T16:05:01.936Z,72.26
2018-10-18T16:07:30.755Z,71.76
2018-10-18T16:09:59.662Z,72.04
2018-10-18T16:12:28.541Z,71.67
2018-10-18T16:14:57.403Z,71.60
2018-10-18T16:17:26.331Z,71.13
2018-10-18T16:19:55.275Z,71.57
2018-10-18T16:22:24.127Z,70.46
2018-10-18T16:24:53.035Z,71.45
2018-10-18T16:27:22.187Z,71.53
2018-10-18T16:29:53.441Z,72.05
2018-10-18T16:32:22.202Z,71.96
2018-10-18T16:34:51.036Z,71.82
2018-10-18T16:37:19.859Z,71.37
2018-10-18T16:39:55.924Z,72.09
2018-10-18T16:42:31.844Z,72.79
2018-10-18T16:45:00.759Z,72.16
2018-10-18T16:47:30.681Z,71.67
2018-10-18T16:49:59.597Z,71.81
2018-10-18T16:52:28.446Z,71.54
2018-10-18T16:54:57.268Z,71.06
2018-10-18T16:57:26.200Z,71.39
2018-10-18T16:59:55.780Z,70.56
2018-10-18T17:02:24.739Z,70.10
2018-10-18T17:04:53.867Z,70.52
2018-10-18T17:07:22.743Z,71.39
2018-10-18T17:09:51.597Z,71.18
2018-10-18T17:12:20.429Z,70.51
2018-10-18T17:14:51.267Z,70.46
2018-10-18T17:17:20.138Z,70.68
2018-10-18T17:19:48.846Z,70.40
2018-10-18T17:22:17.695Z,70.22
2018-10-18T17:24:46.523Z,70.23
2018-10-18T17:27:15.660Z,70.66
2018-10-18T17:29:44.687Z,70.23
2018-10-18T17:32:13.931Z,71.11
2018-10-18T17:34:42.679Z,71.07
2018-10-18T17:37:12.584Z,70.84
2018-10-18T17:39:41.465Z,71.15
2018-10-18T17:42:10.451Z,70.92
2018-10-18T17:44:39.235Z,70.91
2018-10-18T17:47:11.407Z,70.86
2018-10-18T17:49:40.871Z,71.17
2018-10-18T17:52:11.262Z,70.72
2018-10-18T17:54:40.132Z,71.34
2018-10-18T17:57:09.364Z,71.28
2018-10-18T17:59:39.213Z,71.00
2018-10-18T18:02:12.253Z,71.28
2018-10-18T18:04:41.360Z,70.88
2018-10-18T18:07:11.525Z,70.91
2018-10-18T18:09:41.170Z,70.74
2018-10-18T18:12:10.145Z,71.21
2018-10-18T18:14:38.918Z,70.56
2018-10-18T18:17:38.041Z,70.98
2018-10-18T18:20:08.403Z,71.40
2018-10-18T18:22:37.416Z,71.15
2018-10-18T18:25:08.688Z,71.78
2018-10-18T18:27:37.744Z,71.65
2018-10-18T18:30:09.045Z,71.83
2018-10-18T18:32:39.304Z,72.03
2018-10-18T18:35:08.224Z,71.78
2018-10-18T18:37:37.751Z,71.72
2018-10-18T18:40:09.188Z,72.63
2018-10-18T18:42:39.883Z,72.73
2018-10-18T18:45:14.188Z,73.02
2018-10-18T18:47:43.526Z,73.01
2018-10-18T18:50:12.960Z,72.36
2018-10-18T18:52:42.860Z,73.01
2018-10-18T18:55:11.793Z,72.74
2018-10-18T18:57:40.624Z,72.84
2018-10-18T19:00:10.740Z,72.70
2018-10-18T19:02:40.250Z,72.14
2018-10-18T19:05:09.663Z,73.26
2018-10-18T19:07:38.639Z,72.57
2018-10-18T19:10:08.329Z,73.29
2018-10-18T19:12:37.208Z,73.45
2018-10-18T19:15:07.166Z,72.86
2018-10-18T19:17:36.135Z,73.35
2018-10-18T19:20:05.579Z,73.60
2018-10-18T19:22:35.284Z,74.03
2018-10-18T19:25:04.958Z,74.00
2018-10-18T19:27:34.402Z,74.75
2018-10-18T19:30:03.346Z,74.79
2018-10-18T19:32:34.196Z,74.70
2018-10-18T19:35:03.023Z,75.11
2018-10-18T19:37:37.525Z,75.26
2018-10-18T19:40:07.355Z,74.57
2018-10-18T19:42:36.619Z,75.22
2018-10-18T19:45:06.890Z,74.93
2018-10-18T19:47:35.738Z,75.32
2018-10-18T19:50:04.722Z,75.07
2018-10-18T19:52:33.755Z,75.01
2018-10-18T19:55:02.791Z,75.17
2018-10-18T19:57:31.656Z,75.25
2018-10-18T20:00:00.824Z,74.79
2018-10-18T20:02:29.922Z,75.10
2018-10-18T20:04:58.733Z,74.64
2018-10-18T20:07:27.542Z,75.13
2018-10-18T20:09:56.420Z,75.06
2018-10-18T20:12:25.235Z,75.06
2018-10-18T20:14:55.555Z,75.42
2018-10-18T20:17:24.395Z,75.25
2018-10-18T20:19:53.303Z,75.18
2018-10-18T20:22:22.149Z,75.09
2018-10-18T20:24:51.116Z,74.78
2018-10-18T20:27:19.958Z,75.11
2018-10-18T20:29:50.866Z,74.98
2018-10-18T20:32:19.738Z,75.21
2018-10-18T20:34:48.859Z,74.92
2018-10-18T20:37:17.783Z,75.04
2018-10-18T20:39:46.949Z,75.33
2018-10-18T20:42:15.757Z,75.45
2018-10-18T20:44:44.979Z,75.52
2018-10-18T20:47:13.939Z,75.46
2018-10-18T20:49:42.715Z,75.52
2018-10-18T20:52:11.540Z,75.39
2018-10-18T20:54:40.605Z,75.31
2018-10-18T20:57:09.810Z,74.56
2018-10-18T20:59:39.024Z,74.82
2018-10-18T21:02:07.934Z,74.64
2018-10-18T21:04:36.825Z,75.03
2018-10-18T21:07:05.821Z,75.16
2018-10-18T21:09:34.769Z,75.12
2018-10-18T21:12:03.668Z,75.46
2018-10-18T21:14:32.579Z,75.43
2018-10-18T21:17:01.391Z,75.13
2018-10-18T21:19:30.204Z,75.46
2018-10-18T21:21:59.138Z,75.17
2018-10-18T21:24:27.930Z,74.75
2018-10-18T21:26:56.825Z,74.68
2018-10-18T21:29:25.726Z,74.30
2018-10-18T21:31:54.497Z,74.91
2018-10-18T21:34:23.360Z,74.59
2018-10-18T21:36:52.067Z,74.98
2018-10-18T21:39:33.374Z,74.90
2018-10-18T21:42:03.189Z,74.93
2018-10-18T21:44:35.476Z,75.17
2018-10-18T21:47:04.466Z,74.95
2018-10-18T21:49:33.455Z,74.85
2018-10-18T21:52:02.239Z,75.03
2018-10-18T21:54:31.576Z,75.01
2018-10-18T21:57:00.403Z,75.01
2018-10-18T21:59:29.287Z,74.98
2018-10-18T22:01:58.086Z,74.62
2018-10-18T22:04:26.955Z,75.29
2018-10-18T22:06:55.762Z,75.41
2018-10-18T22:09:24.643Z,75.45
2018-10-18T22:11:53.429Z,75.40
2018-10-18T22:14:22.291Z,74.86
2018-10-18T22:16:51.028Z,75.33
2018-10-18T22:19:20.132Z,75.70
2018-10-18T22:21:48.965Z,75.58
2018-10-18T22:24:17.829Z,75.27
2018-10-18T22:26:46.707Z,74.89
2018-10-18T22:29:15.710Z,75.29
2018-10-18T22:31:44.585Z,75.28
2018-10-18T22:34:13.394Z,75.16
2018-10-18T22:36:42.246Z,75.18
2018-10-18T22:39:12.189Z,75.07
2018-10-18T22:41:41.774Z,75.30
2018-10-18T22:44:11.284Z,75.14
2018-10-18T22:46:40.221Z,75.25
2018-10-18T22:49:09.012Z,75.25
2018-10-18T22:51:37.903Z,75.35
2018-10-18T22:54:06.894Z,75.20
2018-10-18T22:56:35.843Z,74.69
2018-10-18T22:59:04.835Z,75.30
2018-10-18T23:01:33.670Z,75.38
2018-10-18T23:04:02.474Z,74.95
2018-10-18T23:06:31.370Z,74.84
2018-10-18T23:09:00.323Z,74.47
2018-10-18T23:11:29.709Z,74.59
2018-10-18T23:13:58.601Z,74.63
2018-10-18T23:16:27.430Z,74.86
2018-10-18T23:18:56.787Z,75.39
2018-10-18T23:21:25.547Z,75.00
2018-10-18T23:23:54.359Z,75.13
2018-10-18T23:26:23.228Z,75.25
2018-10-18T23:28:52.163Z,74.74
2018-10-18T23:31:21.045Z,75.19
2018-10-18T23:33:50.198Z,75.69
2018-10-18T23:36:19.176Z,75.21
2018-10-18T23:38:48.002Z,75.37
2018-10-18T23:41:16.967Z,74.79
2018-10-18T23:43:45.942Z,74.98
2018-10-18T23:46:15.139Z,75.08
2018-10-18T23:48:43.918Z,75.65
2018-10-18T23:51:12.860Z,75.00
2018-10-18T23:53:41.794Z,74.83
2018-10-18T23:56:10.631Z,75.19
2018-10-18T23:58:39.944Z,75.00
